Epic Caledonia — 9V2516 — position and weather

sailwx.info

Track history (hours):
 
Tides and Currents Weather Stations Pressure Air Temp Water Temp Dewpoint Dewpoint Depression Visibility Wind Speed Wind Dir Waves Ship Positions

Epic Caledonia

Last reported at 2018-Jan-29 19:47 UTC. Time now 2018-Feb-25 10:12 UTC.
Position N 11°23' W 074°50'.
Warning: this ship's position is 26 days out of date.

Length 94 m; draft 5.1 m.

Type: Tanker. MMSI: 564923000.

Date/timePositionNaut miles runAvg speedWind from/ knotsBaromVisibWave heightAir tempDewpointWater temp
2018-Jan-29 19:47N 11°23' W 074°50'20 5.2
2018-Jan-29 15:54N 11°15' W 075°09'60 1.5
2018-Jan-27 22:44N 10°18' W 075°30'0 0.0
2018-Jan-27 22:26N 10°18' W 075°30'0 0.0
2018-Jan-27 21:56N 10°18' W 075°30'0 0.0
2018-Jan-27 21:26N 10°18' W 075°30'0 0.0
2018-Jan-27 20:56N 10°18' W 075°30'0 0.0
2018-Jan-27 20:29N 10°18' W 075°30'0 0.0
2018-Jan-27 19:50N 10°18' W 075°30'0 0.0
2018-Jan-27 19:26N 10°18' W 075°30'0 0.0
2018-Jan-27 18:56N 10°18' W 075°30'0 0.0
2018-Jan-27 18:26N 10°18' W 075°30'0 0.0
2018-Jan-27 17:56N 10°18' W 075°30'0 0.0
2018-Jan-27 17:29N 10°18' W 075°30'0 0.0
2018-Jan-27 16:59N 10°18' W 075°30'0 0.0
2018-Jan-27 16:29N 10°18' W 075°30'0 0.0
2018-Jan-27 15:59N 10°18' W 075°30'0 0.0
2018-Jan-27 15:29N 10°18' W 075°30'0 0.0
2018-Jan-27 14:59N 10°18' W 075°30'0 0.0
2018-Jan-27 14:29N 10°18' W 075°30'0 0.0
2018-Jan-27 13:59N 10°18' W 075°30'0 0.0
2018-Jan-27 13:29N 10°18' W 075°30'0 0.6
2018-Jan-27 13:00N 10°19' W 075°31'3 6.2
2018-Jan-27 12:30N 10°19' W 075°34'2 4.9
2018-Jan-27 12:00N 10°19' W 075°36'3 5.8
2018-Jan-27 11:29N 10°18' W 075°39'1 1.0
2018-Jan-27 11:00N 10°18' W 075°39'1 2.7
2018-Jan-27 10:30N 10°18' W 075°41'67 3.4
2018-Jan-26 14:49N 11°16' W 075°06'913.1
2018-Jan-26 14:08N 11°21' W 074°58'213.4
2018-Jan-26 13:59N 11°22' W 074°56'713.4
2018-Jan-26 13:29N 11°26' W 074°51'  
Track history (hours):
 
Tides and Currents Weather Stations Pressure Air Temp Water Temp Dewpoint Dewpoint Depression Visibility Wind Speed Wind Dir Waves Ship Positions

Epic Caledonia

Last reported at 2018-Jan-29 19:47 UTC. Time now 2018-Feb-25 10:12 UTC.
Position N 11°23' W 074°50'.
Warning: this ship's position is 26 days out of date.

Length 94 m; draft 5.1 m.

Type: Tanker. MMSI: 564923000.

Date/timePositionNaut miles runAvg speedWind from/ knotsBaromVisibWave heightAir tempDewpointWater temp
2018-Jan-29 19:47N 11°23' W 074°50'20 5.2
2018-Jan-29 15:54N 11°15' W 075°09'60 1.5
2018-Jan-27 22:44N 10°18' W 075°30'0 0.0
2018-Jan-27 22:26N 10°18' W 075°30'0 0.0
2018-Jan-27 21:56N 10°18' W 075°30'0 0.0
2018-Jan-27 21:26N 10°18' W 075°30'0 0.0
2018-Jan-27 20:56N 10°18' W 075°30'0 0.0
2018-Jan-27 20:29N 10°18' W 075°30'0 0.0
2018-Jan-27 19:50N 10°18' W 075°30'0 0.0
2018-Jan-27 19:26N 10°18' W 075°30'0 0.0
2018-Jan-27 18:56N 10°18' W 075°30'0 0.0
2018-Jan-27 18:26N 10°18' W 075°30'0 0.0
2018-Jan-27 17:56N 10°18' W 075°30'0 0.0
2018-Jan-27 17:29N 10°18' W 075°30'0 0.0
2018-Jan-27 16:59N 10°18' W 075°30'0 0.0
2018-Jan-27 16:29N 10°18' W 075°30'0 0.0
2018-Jan-27 15:59N 10°18' W 075°30'0 0.0
2018-Jan-27 15:29N 10°18' W 075°30'0 0.0
2018-Jan-27 14:59N 10°18' W 075°30'0 0.0
2018-Jan-27 14:29N 10°18' W 075°30'0 0.0
2018-Jan-27 13:59N 10°18' W 075°30'0 0.0
2018-Jan-27 13:29N 10°18' W 075°30'0 0.6
2018-Jan-27 13:00N 10°19' W 075°31'3 6.2
2018-Jan-27 12:30N 10°19' W 075°34'2 4.9
2018-Jan-27 12:00N 10°19' W 075°36'3 5.8
2018-Jan-27 11:29N 10°18' W 075°39'1 1.0
2018-Jan-27 11:00N 10°18' W 075°39'1 2.7
2018-Jan-27 10:30N 10°18' W 075°41'67 3.4
2018-Jan-26 14:49N 11°16' W 075°06'913.1
2018-Jan-26 14:08N 11°21' W 074°58'213.4
2018-Jan-26 13:59N 11°22' W 074°56'713.4
2018-Jan-26 13:29N 11°26' W 074°51'  

Dump ship's entire track history